sensor_id;sensor_type;location;lat;lon;timestamp;P1;durP1;ratioP1;P2;durP2;ratioP2
80481;SDS011;69797;43.864;21.410;2023-07-16T00:02:15;10.27;;;6.35;;
80481;SDS011;69797;43.864;21.410;2023-07-16T00:04:42;9.02;;;5.93;;
80481;SDS011;69797;43.864;21.410;2023-07-16T00:07:08;12.10;;;6.43;;
80481;SDS011;69797;43.864;21.410;2023-07-16T00:09:36;11.32;;;6.22;;
80481;SDS011;69797;43.864;21.410;2023-07-16T00:12:03;8.40;;;6.10;;
80481;SDS011;69797;43.864;21.410;2023-07-16T00:14:30;10.18;;;6.40;;
80481;SDS011;69797;43.864;21.410;2023-07-16T00:16:59;8.75;;;6.07;;
80481;SDS011;69797;43.864;21.410;2023-07-16T00:19:26;8.68;;;5.82;;
80481;SDS011;69797;43.864;21.410;2023-07-16T00:21:55;10.20;;;6.18;;
80481;SDS011;69797;43.864;21.410;2023-07-16T00:24:22;11.03;;;5.90;;
80481;SDS011;69797;43.864;21.410;2023-07-16T00:26:49;8.43;;;6.03;;
80481;SDS011;69797;43.864;21.410;2023-07-16T00:29:18;11.07;;;6.38;;
80481;SDS011;69797;43.864;21.410;2023-07-16T00:31:44;11.25;;;6.30;;
80481;SDS011;69797;43.864;21.410;2023-07-16T00:34:11;9.90;;;6.20;;
80481;SDS011;69797;43.864;21.410;2023-07-16T00:36:39;12.03;;;6.13;;
80481;SDS011;69797;43.864;21.410;2023-07-16T00:39:06;9.52;;;6.10;;
80481;SDS011;69797;43.864;21.410;2023-07-16T00:41:33;10.02;;;6.45;;
80481;SDS011;69797;43.864;21.410;2023-07-16T00:43:59;9.70;;;6.28;;
80481;SDS011;69797;43.864;21.410;2023-07-16T00:46:26;9.30;;;5.95;;
80481;SDS011;69797;43.864;21.410;2023-07-16T00:48:53;8.93;;;5.80;;
80481;SDS011;69797;43.864;21.410;2023-07-16T00:51:20;12.40;;;6.15;;
80481;SDS011;69797;43.864;21.410;2023-07-16T00:53:48;12.07;;;6.18;;
80481;SDS011;69797;43.864;21.410;2023-07-16T00:56:16;10.23;;;5.78;;
80481;SDS011;69797;43.864;21.410;2023-07-16T00:58:44;9.75;;;6.13;;
80481;SDS011;69797;43.864;21.410;2023-07-16T01:01:11;10.97;;;6.07;;
80481;SDS011;69797;43.864;21.410;2023-07-16T01:03:38;11.82;;;6.13;;
80481;SDS011;69797;43.864;21.410;2023-07-16T01:06:16;10.38;;;6.43;;
80481;SDS011;69797;43.864;21.410;2023-07-16T01:09:03;10.48;;;6.90;;
80481;SDS011;69797;43.864;21.410;2023-07-16T01:11:34;10.05;;;6.05;;
80481;SDS011;69797;43.864;21.410;2023-07-16T01:14:04;12.60;;;6.60;;
80481;SDS011;69797;43.864;21.410;2023-07-16T01:16:33;9.38;;;6.10;;
80481;SDS011;69797;43.864;21.410;2023-07-16T01:19:00;10.52;;;6.85;;
80481;SDS011;69797;43.864;21.410;2023-07-16T01:21:28;11.75;;;6.15;;
80481;SDS011;69797;43.864;21.410;2023-07-16T01:29:44;8.98;;;6.47;;
80481;SDS011;69797;43.864;21.410;2023-07-16T01:32:16;10.68;;;6.13;;
80481;SDS011;69797;43.864;21.410;2023-07-16T01:34:43;9.80;;;6.13;;
80481;SDS011;69797;43.864;21.410;2023-07-16T01:37:11;8.30;;;5.40;;
80481;SDS011;69797;43.864;21.410;2023-07-16T01:39:38;9.83;;;5.73;;
80481;SDS011;69797;43.864;21.410;2023-07-16T01:42:06;9.77;;;5.82;;
80481;SDS011;69797;43.864;21.410;2023-07-16T01:44:33;9.75;;;6.13;;
80481;SDS011;69797;43.864;21.410;2023-07-16T01:47:10;10.48;;;6.53;;
80481;SDS011;69797;43.864;21.410;2023-07-16T01:49:38;8.23;;;5.72;;
80481;SDS011;69797;43.864;21.410;2023-07-16T01:52:06;10.50;;;5.73;;
80481;SDS011;69797;43.864;21.410;2023-07-16T01:54:35;9.38;;;6.03;;
80481;SDS011;69797;43.864;21.410;2023-07-16T01:57:05;10.77;;;6.28;;
80481;SDS011;69797;43.864;21.410;2023-07-16T01:59:32;11.10;;;6.30;;
80481;SDS011;69797;43.864;21.410;2023-07-16T02:01:59;10.07;;;5.88;;
80481;SDS011;69797;43.864;21.410;2023-07-16T02:04:26;10.30;;;5.53;;
80481;SDS011;69797;43.864;21.410;2023-07-16T02:06:55;9.27;;;5.80;;
80481;SDS011;69797;43.864;21.410;2023-07-16T02:09:21;10.43;;;6.80;;
80481;SDS011;69797;43.864;21.410;2023-07-16T02:11:48;11.70;;;6.65;;
80481;SDS011;69797;43.864;21.410;2023-07-16T02:14:15;8.73;;;5.90;;
80481;SDS011;69797;43.864;21.410;2023-07-16T02:16:42;13.40;;;5.90;;
80481;SDS011;69797;43.864;21.410;2023-07-16T02:19:09;9.55;;;5.72;;
80481;SDS011;69797;43.864;21.410;2023-07-16T02:21:36;9.35;;;5.78;;
80481;SDS011;69797;43.864;21.410;2023-07-16T02:24:03;9.07;;;5.63;;
80481;SDS011;69797;43.864;21.410;2023-07-16T02:26:30;9.40;;;5.85;;
80481;SDS011;69797;43.864;21.410;2023-07-16T02:28:57;8.03;;;5.57;;
80481;SDS011;69797;43.864;21.410;2023-07-16T02:31:25;8.43;;;5.88;;
80481;SDS011;69797;43.864;21.410;2023-07-16T02:33:52;7.63;;;6.38;;
80481;SDS011;69797;43.864;21.410;2023-07-16T02:36:19;7.35;;;5.72;;
80481;SDS011;69797;43.864;21.410;2023-07-16T02:38:45;7.07;;;5.72;;
80481;SDS011;69797;43.864;21.410;2023-07-16T02:41:12;9.23;;;6.27;;
80481;SDS011;69797;43.864;21.410;2023-07-16T02:43:39;7.50;;;5.53;;
80481;SDS011;69797;43.864;21.410;2023-07-16T02:46:06;7.95;;;5.68;;
80481;SDS011;69797;43.864;21.410;2023-07-16T02:48:32;11.85;;;6.47;;
80481;SDS011;69797;43.864;21.410;2023-07-16T02:51:00;8.23;;;5.93;;
80481;SDS011;69797;43.864;21.410;2023-07-16T02:53:27;8.13;;;5.97;;
80481;SDS011;69797;43.864;21.410;2023-07-16T02:55:54;9.93;;;6.53;;
80481;SDS011;69797;43.864;21.410;2023-07-16T02:58:21;11.52;;;6.70;;
80481;SDS011;69797;43.864;21.410;2023-07-16T03:00:48;11.48;;;6.50;;
80481;SDS011;69797;43.864;21.410;2023-07-16T03:03:14;10.95;;;6.55;;
80481;SDS011;69797;43.864;21.410;2023-07-16T03:05:41;7.97;;;5.60;;
80481;SDS011;69797;43.864;21.410;2023-07-16T03:08:08;8.88;;;5.35;;
80481;SDS011;69797;43.864;21.410;2023-07-16T03:10:35;8.18;;;5.82;;
80481;SDS011;69797;43.864;21.410;2023-07-16T03:13:02;8.68;;;6.05;;
80481;SDS011;69797;43.864;21.410;2023-07-16T03:15:29;8.02;;;5.78;;
80481;SDS011;69797;43.864;21.410;2023-07-16T03:17:56;11.23;;;6.17;;
80481;SDS011;69797;43.864;21.410;2023-07-16T03:20:23;8.40;;;5.50;;
80481;SDS011;69797;43.864;21.410;2023-07-16T03:22:49;8.10;;;5.95;;
80481;SDS011;69797;43.864;21.410;2023-07-16T03:25:16;8.52;;;5.93;;
80481;SDS011;69797;43.864;21.410;2023-07-16T03:27:43;9.40;;;5.50;;
80481;SDS011;69797;43.864;21.410;2023-07-16T03:30:10;8.33;;;5.87;;
80481;SDS011;69797;43.864;21.410;2023-07-16T03:32:40;11.18;;;5.97;;
80481;SDS011;69797;43.864;21.410;2023-07-16T03:35:18;12.35;;;6.15;;
80481;SDS011;69797;43.864;21.410;2023-07-16T03:37:46;8.20;;;5.70;;
80481;SDS011;69797;43.864;21.410;2023-07-16T03:40:13;9.20;;;6.30;;
80481;SDS011;69797;43.864;21.410;2023-07-16T03:42:41;7.10;;;5.87;;
80481;SDS011;69797;43.864;21.410;2023-07-16T03:45:09;9.15;;;5.80;;
80481;SDS011;69797;43.864;21.410;2023-07-16T03:47:37;8.88;;;6.53;;
80481;SDS011;69797;43.864;21.410;2023-07-16T03:50:04;12.55;;;6.45;;
80481;SDS011;69797;43.864;21.410;2023-07-16T03:52:31;8.43;;;6.20;;
80481;SDS011;69797;43.864;21.410;2023-07-16T03:54:58;10.50;;;5.73;;
80481;SDS011;69797;43.864;21.410;2023-07-16T03:57:27;7.95;;;5.80;;
80481;SDS011;69797;43.864;21.410;2023-07-16T03:59:54;8.48;;;5.82;;
80481;SDS011;69797;43.864;21.410;2023-07-16T04:02:21;10.13;;;6.47;;
80481;SDS011;69797;43.864;21.410;2023-07-16T04:04:49;8.57;;;6.18;;
80481;SDS011;69797;43.864;21.410;2023-07-16T04:07:17;8.67;;;6.27;;
80481;SDS011;69797;43.864;21.410;2023-07-16T04:09:49;8.57;;;6.15;;
80481;SDS011;69797;43.864;21.410;2023-07-16T04:12:17;8.00;;;6.22;;
80481;SDS011;69797;43.864;21.410;2023-07-16T04:14:44;8.05;;;5.53;;
80481;SDS011;69797;43.864;21.410;2023-07-16T04:17:11;11.90;;;5.88;;
80481;SDS011;69797;43.864;21.410;2023-07-16T04:19:38;7.23;;;5.93;;
80481;SDS011;69797;43.864;21.410;2023-07-16T04:22:07;6.80;;;5.70;;
80481;SDS011;69797;43.864;21.410;2023-07-16T04:24:34;7.18;;;5.10;;
80481;SDS011;69797;43.864;21.410;2023-07-16T04:27:01;8.00;;;6.38;;
80481;SDS011;69797;43.864;21.410;2023-07-16T04:29:27;6.65;;;5.78;;
80481;SDS011;69797;43.864;21.410;2023-07-16T04:31:54;7.40;;;5.47;;
80481;SDS011;69797;43.864;21.410;2023-07-16T04:34:21;9.10;;;5.65;;
80481;SDS011;69797;43.864;21.410;2023-07-16T04:36:48;8.13;;;6.10;;
80481;SDS011;69797;43.864;21.410;2023-07-16T04:39:15;8.85;;;6.22;;
80481;SDS011;69797;43.864;21.410;2023-07-16T04:41:41;6.90;;;5.80;;
80481;SDS011;69797;43.864;21.410;2023-07-16T04:44:08;7.77;;;5.57;;
80481;SDS011;69797;43.864;21.410;2023-07-16T04:46:35;10.02;;;5.97;;
80481;SDS011;69797;43.864;21.410;2023-07-16T04:49:04;7.45;;;6.10;;
80481;SDS011;69797;43.864;21.410;2023-07-16T04:51:32;8.27;;;6.00;;
80481;SDS011;69797;43.864;21.410;2023-07-16T04:53:59;11.95;;;6.32;;
80481;SDS011;69797;43.864;21.410;2023-07-16T04:56:26;10.50;;;6.63;;
80481;SDS011;69797;43.864;21.410;2023-07-16T04:58:53;9.82;;;6.88;;
80481;SDS011;69797;43.864;21.410;2023-07-16T05:01:19;7.15;;;6.32;;
80481;SDS011;69797;43.864;21.410;2023-07-16T05:03:47;9.05;;;6.03;;
80481;SDS011;69797;43.864;21.410;2023-07-16T05:06:14;8.45;;;6.30;;
80481;SDS011;69797;43.864;21.410;2023-07-16T05:08:41;8.03;;;6.10;;
80481;SDS011;69797;43.864;21.410;2023-07-16T05:11:08;8.18;;;5.60;;
80481;SDS011;69797;43.864;21.410;2023-07-16T05:13:34;8.15;;;5.63;;
80481;SDS011;69797;43.864;21.410;2023-07-16T05:16:01;6.90;;;6.00;;
80481;SDS011;69797;43.864;21.410;2023-07-16T05:18:30;6.50;;;5.80;;
80481;SDS011;69797;43.864;21.410;2023-07-16T05:20:57;7.93;;;5.87;;
80481;SDS011;69797;43.864;21.410;2023-07-16T05:23:24;9.90;;;7.05;;
80481;SDS011;69797;43.864;21.410;2023-07-16T05:25:51;33.08;;;8.60;;
80481;SDS011;69797;43.864;21.410;2023-07-16T05:28:18;15.13;;;6.68;;
80481;SDS011;69797;43.864;21.410;2023-07-16T05:30:45;6.38;;;5.45;;
80481;SDS011;69797;43.864;21.410;2023-07-16T05:33:12;9.17;;;6.23;;
80481;SDS011;69797;43.864;21.410;2023-07-16T05:35:39;10.27;;;6.65;;
80481;SDS011;69797;43.864;21.410;2023-07-16T05:38:06;8.85;;;6.00;;
80481;SDS011;69797;43.864;21.410;2023-07-16T05:40:33;7.32;;;5.97;;
80481;SDS011;69797;43.864;21.410;2023-07-16T05:43:00;9.63;;;6.07;;
80481;SDS011;69797;43.864;21.410;2023-07-16T05:45:27;6.47;;;5.50;;
80481;SDS011;69797;43.864;21.410;2023-07-16T05:47:54;8.27;;;6.18;;
80481;SDS011;69797;43.864;21.410;2023-07-16T05:50:20;8.25;;;6.30;;
80481;SDS011;69797;43.864;21.410;2023-07-16T05:52:47;7.43;;;5.60;;
80481;SDS011;69797;43.864;21.410;2023-07-16T05:55:17;5.80;;;5.20;;
80481;SDS011;69797;43.864;21.410;2023-07-16T05:57:46;7.63;;;6.27;;
80481;SDS011;69797;43.864;21.410;2023-07-16T06:00:13;8.55;;;6.03;;
80481;SDS011;69797;43.864;21.410;2023-07-16T06:02:40;7.47;;;6.68;;
80481;SDS011;69797;43.864;21.410;2023-07-16T06:05:07;11.30;;;6.75;;
80481;SDS011;69797;43.864;21.410;2023-07-16T06:07:34;9.68;;;6.20;;
80481;SDS011;69797;43.864;21.410;2023-07-16T06:10:01;8.20;;;6.77;;
80481;SDS011;69797;43.864;21.410;2023-07-16T06:12:30;10.13;;;6.22;;
80481;SDS011;69797;43.864;21.410;2023-07-16T06:14:59;15.20;;;7.95;;
80481;SDS011;69797;43.864;21.410;2023-07-16T06:17:29;17.02;;;8.23;;
80481;SDS011;69797;43.864;21.410;2023-07-16T06:19:56;17.17;;;9.23;;
80481;SDS011;69797;43.864;21.410;2023-07-16T06:22:24;29.07;;;10.27;;
80481;SDS011;69797;43.864;21.410;2023-07-16T06:24:51;21.35;;;9.75;;
80481;SDS011;69797;43.864;21.410;2023-07-16T06:27:17;23.88;;;10.43;;
80481;SDS011;69797;43.864;21.410;2023-07-16T06:29:44;20.45;;;9.25;;
80481;SDS011;69797;43.864;21.410;2023-07-16T06:32:11;9.50;;;8.30;;
80481;SDS011;69797;43.864;21.410;2023-07-16T06:34:41;14.20;;;8.50;;
80481;SDS011;69797;43.864;21.410;2023-07-16T06:37:08;13.20;;;8.73;;
80481;SDS011;69797;43.864;21.410;2023-07-16T06:39:35;13.05;;;8.85;;
80481;SDS011;69797;43.864;21.410;2023-07-16T06:42:04;14.15;;;8.02;;
80481;SDS011;69797;43.864;21.410;2023-07-16T06:44:31;9.63;;;8.52;;
80481;SDS011;69797;43.864;21.410;2023-07-16T06:46:58;10.37;;;7.70;;
80481;SDS011;69797;43.864;21.410;2023-07-16T06:49:25;9.38;;;7.55;;
80481;SDS011;69797;43.864;21.410;2023-07-16T06:51:52;10.40;;;7.60;;
80481;SDS011;69797;43.864;21.410;2023-07-16T06:54:19;8.73;;;7.50;;
80481;SDS011;69797;43.864;21.410;2023-07-16T06:56:45;8.32;;;7.53;;
80481;SDS011;69797;43.864;21.410;2023-07-16T06:59:20;8.00;;;7.10;;
80481;SDS011;69797;43.864;21.410;2023-07-16T07:01:46;11.10;;;7.70;;
80481;SDS011;69797;43.864;21.410;2023-07-16T07:04:16;10.02;;;8.55;;
80481;SDS011;69797;43.864;21.410;2023-07-16T07:06:43;8.95;;;8.13;;
80481;SDS011;69797;43.864;21.410;2023-07-16T07:09:10;8.65;;;7.35;;
80481;SDS011;69797;43.864;21.410;2023-07-16T07:11:36;7.80;;;7.00;;
80481;SDS011;69797;43.864;21.410;2023-07-16T07:14:03;8.15;;;7.28;;
80481;SDS011;69797;43.864;21.410;2023-07-16T07:16:30;8.90;;;8.15;;
80481;SDS011;69797;43.864;21.410;2023-07-16T07:18:59;8.90;;;7.55;;
80481;SDS011;69797;43.864;21.410;2023-07-16T07:21:26;10.35;;;7.82;;
80481;SDS011;69797;43.864;21.410;2023-07-16T07:23:53;10.67;;;8.00;;
80481;SDS011;69797;43.864;21.410;2023-07-16T07:26:19;13.75;;;8.40;;
80481;SDS011;69797;43.864;21.410;2023-07-16T07:28:46;10.10;;;8.18;;
80481;SDS011;69797;43.864;21.410;2023-07-16T07:31:13;9.35;;;8.00;;
80481;SDS011;69797;43.864;21.410;2023-07-16T07:33:40;8.95;;;8.10;;
80481;SDS011;69797;43.864;21.410;2023-07-16T07:36:07;9.17;;;7.63;;
80481;SDS011;69797;43.864;21.410;2023-07-16T07:38:33;8.93;;;8.07;;
80481;SDS011;69797;43.864;21.410;2023-07-16T07:41:01;9.18;;;8.35;;
80481;SDS011;69797;43.864;21.410;2023-07-16T07:43:28;9.90;;;8.13;;
80481;SDS011;69797;43.864;21.410;2023-07-16T07:45:54;8.65;;;7.75;;
80481;SDS011;69797;43.864;21.410;2023-07-16T07:48:21;9.30;;;7.97;;
80481;SDS011;69797;43.864;21.410;2023-07-16T07:50:48;8.85;;;7.95;;
80481;SDS011;69797;43.864;21.410;2023-07-16T07:53:18;7.88;;;7.18;;
80481;SDS011;69797;43.864;21.410;2023-07-16T07:55:45;8.90;;;8.00;;
80481;SDS011;69797;43.864;21.410;2023-07-16T07:58:12;8.70;;;7.82;;
80481;SDS011;69797;43.864;21.410;2023-07-16T08:00:39;8.37;;;7.57;;
80481;SDS011;69797;43.864;21.410;2023-07-16T08:03:06;8.50;;;7.70;;
80481;SDS011;69797;43.864;21.410;2023-07-16T08:05:33;8.48;;;7.72;;
80481;SDS011;69797;43.864;21.410;2023-07-16T08:08:00;9.13;;;7.28;;
80481;SDS011;69797;43.864;21.410;2023-07-16T08:10:27;8.32;;;7.60;;
80481;SDS011;69797;43.864;21.410;2023-07-16T08:12:54;9.00;;;8.20;;
80481;SDS011;69797;43.864;21.410;2023-07-16T08:15:21;8.80;;;7.45;;
80481;SDS011;69797;43.864;21.410;2023-07-16T08:17:47;9.57;;;8.77;;
80481;SDS011;69797;43.864;21.410;2023-07-16T08:20:15;8.30;;;7.22;;
80481;SDS011;69797;43.864;21.410;2023-07-16T08:22:45;9.73;;;8.82;;
80481;SDS011;69797;43.864;21.410;2023-07-16T08:25:11;9.00;;;8.17;;
80481;SDS011;69797;43.864;21.410;2023-07-16T08:27:38;9.70;;;8.82;;
80481;SDS011;69797;43.864;21.410;2023-07-16T08:30:05;9.55;;;8.50;;
80481;SDS011;69797;43.864;21.410;2023-07-16T08:32:33;9.73;;;8.77;;
80481;SDS011;69797;43.864;21.410;2023-07-16T08:34:59;9.68;;;8.85;;
80481;SDS011;69797;43.864;21.410;2023-07-16T08:37:26;9.60;;;8.80;;
80481;SDS011;69797;43.864;21.410;2023-07-16T08:39:53;11.45;;;10.35;;
80481;SDS011;69797;43.864;21.410;2023-07-16T08:42:23;10.38;;;9.48;;
80481;SDS011;69797;43.864;21.410;2023-07-16T08:44:50;10.68;;;9.68;;
80481;SDS011;69797;43.864;21.410;2023-07-16T08:47:20;10.07;;;9.18;;
80481;SDS011;69797;43.864;21.410;2023-07-16T08:49:53;11.63;;;9.63;;
80481;SDS011;69797;43.864;21.410;2023-07-16T08:52:24;11.10;;;9.38;;
80481;SDS011;69797;43.864;21.410;2023-07-16T08:54:54;10.48;;;9.40;;
80481;SDS011;69797;43.864;21.410;2023-07-16T08:57:21;10.05;;;9.25;;
80481;SDS011;69797;43.864;21.410;2023-07-16T08:59:49;10.75;;;9.60;;
80481;SDS011;69797;43.864;21.410;2023-07-16T09:02:17;10.93;;;9.93;;
80481;SDS011;69797;43.864;21.410;2023-07-16T09:04:49;11.30;;;10.23;;
80481;SDS011;69797;43.864;21.410;2023-07-16T09:07:19;11.50;;;10.55;;
80481;SDS011;69797;43.864;21.410;2023-07-16T09:09:58;12.45;;;11.45;;
80481;SDS011;69797;43.864;21.410;2023-07-16T09:12:27;12.60;;;11.40;;
80481;SDS011;69797;43.864;21.410;2023-07-16T09:14:54;11.03;;;10.23;;
80481;SDS011;69797;43.864;21.410;2023-07-16T09:17:24;11.93;;;11.02;;
80481;SDS011;69797;43.864;21.410;2023-07-16T09:19:53;11.90;;;10.80;;
80481;SDS011;69797;43.864;21.410;2023-07-16T09:22:22;11.88;;;10.98;;
80481;SDS011;69797;43.864;21.410;2023-07-16T09:24:49;9.73;;;7.63;;
80481;SDS011;69797;43.864;21.410;2023-07-16T09:27:16;7.80;;;6.90;;
80481;SDS011;69797;43.864;21.410;2023-07-16T09:29:43;8.88;;;7.30;;
80481;SDS011;69797;43.864;21.410;2023-07-16T09:32:14;11.10;;;7.07;;
80481;SDS011;69797;43.864;21.410;2023-07-16T09:34:41;9.85;;;6.50;;
80481;SDS011;69797;43.864;21.410;2023-07-16T09:37:08;8.00;;;6.80;;
80481;SDS011;69797;43.864;21.410;2023-07-16T09:39:35;8.63;;;6.87;;
80481;SDS011;69797;43.864;21.410;2023-07-16T09:42:04;11.00;;;6.72;;
80481;SDS011;69797;43.864;21.410;2023-07-16T09:44:32;7.78;;;6.90;;
80481;SDS011;69797;43.864;21.410;2023-07-16T09:46:59;16.23;;;9.73;;
80481;SDS011;69797;43.864;21.410;2023-07-16T09:49:28;12.13;;;7.68;;
80481;SDS011;69797;43.864;21.410;2023-07-16T09:51:56;8.00;;;6.80;;
80481;SDS011;69797;43.864;21.410;2023-07-16T09:54:25;19.30;;;7.35;;
80481;SDS011;69797;43.864;21.410;2023-07-16T09:56:56;11.88;;;8.50;;
80481;SDS011;69797;43.864;21.410;2023-07-16T09:59:27;12.95;;;7.75;;
80481;SDS011;69797;43.864;21.410;2023-07-16T10:01:55;9.20;;;6.85;;
80481;SDS011;69797;43.864;21.410;2023-07-16T10:04:23;12.70;;;7.13;;
80481;SDS011;69797;43.864;21.410;2023-07-16T10:06:59;9.02;;;7.22;;
80481;SDS011;69797;43.864;21.410;2023-07-16T10:09:38;11.10;;;6.90;;
80481;SDS011;69797;43.864;21.410;2023-07-16T10:12:15;9.30;;;7.07;;
80481;SDS011;69797;43.864;21.410;2023-07-16T10:14:45;13.68;;;8.00;;
80481;SDS011;69797;43.864;21.410;2023-07-16T10:17:17;11.03;;;7.30;;
80481;SDS011;69797;43.864;21.410;2023-07-16T10:19:46;12.38;;;7.68;;
80481;SDS011;69797;43.864;21.410;2023-07-16T10:22:35;13.00;;;8.02;;
80481;SDS011;69797;43.864;21.410;2023-07-16T10:25:21;10.60;;;6.30;;
80481;SDS011;69797;43.864;21.410;2023-07-16T10:27:48;9.63;;;7.20;;
80481;SDS011;69797;43.864;21.410;2023-07-16T10:30:17;9.90;;;6.30;;
80481;SDS011;69797;43.864;21.410;2023-07-16T10:32:46;9.07;;;6.93;;
80481;SDS011;69797;43.864;21.410;2023-07-16T10:35:14;11.13;;;7.20;;
80481;SDS011;69797;43.864;21.410;2023-07-16T10:37:40;15.20;;;7.40;;
80481;SDS011;69797;43.864;21.410;2023-07-16T10:40:11;14.23;;;6.75;;
80481;SDS011;69797;43.864;21.410;2023-07-16T10:42:43;12.80;;;6.83;;
80481;SDS011;69797;43.864;21.410;2023-07-16T10:45:13;9.88;;;6.35;;
80481;SDS011;69797;43.864;21.410;2023-07-16T10:47:53;12.18;;;7.72;;
80481;SDS011;69797;43.864;21.410;2023-07-16T10:50:21;10.38;;;7.03;;
80481;SDS011;69797;43.864;21.410;2023-07-16T10:52:52;10.98;;;7.90;;
80481;SDS011;69797;43.864;21.410;2023-07-16T10:55:23;10.83;;;6.87;;
80481;SDS011;69797;43.864;21.410;2023-07-16T10:57:52;13.48;;;6.68;;
80481;SDS011;69797;43.864;21.410;2023-07-16T11:00:20;10.43;;;7.35;;
80481;SDS011;69797;43.864;21.410;2023-07-16T11:02:51;8.93;;;7.18;;
80481;SDS011;69797;43.864;21.410;2023-07-16T11:05:20;10.15;;;7.35;;
80481;SDS011;69797;43.864;21.410;2023-07-16T11:07:48;8.33;;;6.83;;
80481;SDS011;69797;43.864;21.410;2023-07-16T11:10:20;10.60;;;6.78;;
80481;SDS011;69797;43.864;21.410;2023-07-16T11:12:50;13.57;;;7.25;;
80481;SDS011;69797;43.864;21.410;2023-07-16T11:15:32;10.38;;;6.82;;
80481;SDS011;69797;43.864;21.410;2023-07-16T11:18:01;9.68;;;6.93;;
80481;SDS011;69797;43.864;21.410;2023-07-16T11:20:30;12.30;;;6.70;;
80481;SDS011;69797;43.864;21.410;2023-07-16T11:22:58;9.25;;;6.65;;
80481;SDS011;69797;43.864;21.410;2023-07-16T11:25:26;9.75;;;7.18;;
80481;SDS011;69797;43.864;21.410;2023-07-16T11:27:54;10.73;;;6.88;;
80481;SDS011;69797;43.864;21.410;2023-07-16T11:30:23;10.85;;;6.90;;
80481;SDS011;69797;43.864;21.410;2023-07-16T11:32:53;10.17;;;6.57;;
80481;SDS011;69797;43.864;21.410;2023-07-16T11:35:21;10.13;;;7.20;;
80481;SDS011;69797;43.864;21.410;2023-07-16T11:37:48;9.90;;;6.88;;
80481;SDS011;69797;43.864;21.410;2023-07-16T11:40:16;18.25;;;7.25;;
80481;SDS011;69797;43.864;21.410;2023-07-16T11:42:48;8.77;;;6.93;;
80481;SDS011;69797;43.864;21.410;2023-07-16T11:45:16;13.00;;;6.70;;
80481;SDS011;69797;43.864;21.410;2023-07-16T11:47:44;10.23;;;7.10;;
80481;SDS011;69797;43.864;21.410;2023-07-16T11:50:12;7.88;;;6.63;;
80481;SDS011;69797;43.864;21.410;2023-07-16T11:52:39;9.52;;;6.60;;
80481;SDS011;69797;43.864;21.410;2023-07-16T11:55:07;8.40;;;6.90;;
80481;SDS011;69797;43.864;21.410;2023-07-16T11:57:34;11.07;;;6.57;;
80481;SDS011;69797;43.864;21.410;2023-07-16T12:00:02;11.07;;;6.63;;
80481;SDS011;69797;43.864;21.410;2023-07-16T12:02:30;9.65;;;6.97;;
80481;SDS011;69797;43.864;21.410;2023-07-16T12:04:57;8.88;;;6.80;;
80481;SDS011;69797;43.864;21.410;2023-07-16T12:07:32;11.85;;;7.00;;
80481;SDS011;69797;43.864;21.410;2023-07-16T12:10:04;11.23;;;7.13;;
80481;SDS011;69797;43.864;21.410;2023-07-16T12:12:33;12.35;;;7.03;;
80481;SDS011;69797;43.864;21.410;2023-07-16T12:15:05;13.30;;;6.70;;
80481;SDS011;69797;43.864;21.410;2023-07-16T12:17:33;11.80;;;8.05;;
80481;SDS011;69797;43.864;21.410;2023-07-16T12:20:01;13.55;;;7.07;;
80481;SDS011;69797;43.864;21.410;2023-07-16T12:22:29;15.30;;;11.00;;
80481;SDS011;69797;43.864;21.410;2023-07-16T12:24:57;9.27;;;7.63;;
80481;SDS011;69797;43.864;21.410;2023-07-16T12:27:23;11.73;;;7.38;;
80481;SDS011;69797;43.864;21.410;2023-07-16T12:29:50;9.65;;;6.50;;
80481;SDS011;69797;43.864;21.410;2023-07-16T12:32:18;9.05;;;6.78;;
80481;SDS011;69797;43.864;21.410;2023-07-16T12:34:46;9.17;;;6.73;;
80481;SDS011;69797;43.864;21.410;2023-07-16T12:37:13;9.50;;;6.72;;
80481;SDS011;69797;43.864;21.410;2023-07-16T12:39:40;11.63;;;6.88;;
80481;SDS011;69797;43.864;21.410;2023-07-16T12:42:07;11.63;;;8.20;;
80481;SDS011;69797;43.864;21.410;2023-07-16T12:44:34;17.55;;;7.65;;
80481;SDS011;69797;43.864;21.410;2023-07-16T12:47:01;10.40;;;7.03;;
80481;SDS011;69797;43.864;21.410;2023-07-16T12:49:28;10.45;;;6.82;;
80481;SDS011;69797;43.864;21.410;2023-07-16T12:51:55;10.88;;;6.68;;
80481;SDS011;69797;43.864;21.410;2023-07-16T12:54:25;9.95;;;7.00;;
80481;SDS011;69797;43.864;21.410;2023-07-16T12:56:51;9.30;;;6.97;;
80481;SDS011;69797;43.864;21.410;2023-07-16T12:59:18;10.33;;;7.00;;
80481;SDS011;69797;43.864;21.410;2023-07-16T13:01:48;9.00;;;7.43;;
80481;SDS011;69797;43.864;21.410;2023-07-16T13:04:14;10.82;;;6.43;;
80481;SDS011;69797;43.864;21.410;2023-07-16T13:06:41;10.00;;;6.95;;
80481;SDS011;69797;43.864;21.410;2023-07-16T13:09:08;12.65;;;7.65;;
80481;SDS011;69797;43.864;21.410;2023-07-16T13:11:35;8.90;;;6.77;;
80481;SDS011;69797;43.864;21.410;2023-07-16T13:14:02;8.38;;;6.97;;
80481;SDS011;69797;43.864;21.410;2023-07-16T13:16:29;9.57;;;6.65;;
80481;SDS011;69797;43.864;21.410;2023-07-16T13:18:56;10.48;;;6.68;;
80481;SDS011;69797;43.864;21.410;2023-07-16T13:21:23;10.48;;;7.30;;
80481;SDS011;69797;43.864;21.410;2023-07-16T13:23:50;10.20;;;6.33;;
80481;SDS011;69797;43.864;21.410;2023-07-16T13:26:16;9.77;;;7.45;;
80481;SDS011;69797;43.864;21.410;2023-07-16T13:28:44;9.15;;;7.30;;
80481;SDS011;69797;43.864;21.410;2023-07-16T13:31:11;8.70;;;7.30;;
80481;SDS011;69797;43.864;21.410;2023-07-16T13:33:37;17.35;;;7.80;;
80481;SDS011;69797;43.864;21.410;2023-07-16T13:36:04;9.10;;;7.40;;
80481;SDS011;69797;43.864;21.410;2023-07-16T13:38:32;10.18;;;6.97;;
80481;SDS011;69797;43.864;21.410;2023-07-16T13:40:59;13.73;;;7.35;;
80481;SDS011;69797;43.864;21.410;2023-07-16T13:43:28;9.52;;;7.13;;
80481;SDS011;69797;43.864;21.410;2023-07-16T13:45:55;9.60;;;7.38;;
80481;SDS011;69797;43.864;21.410;2023-07-16T13:48:22;10.87;;;7.30;;
80481;SDS011;69797;43.864;21.410;2023-07-16T13:50:49;12.18;;;7.72;;
80481;SDS011;69797;43.864;21.410;2023-07-16T13:53:15;10.75;;;6.88;;
80481;SDS011;69797;43.864;21.410;2023-07-16T13:55:42;7.15;;;6.45;;
80481;SDS011;69797;43.864;21.410;2023-07-16T13:58:10;9.32;;;6.97;;
80481;SDS011;69797;43.864;21.410;2023-07-16T14:00:37;11.20;;;7.13;;
80481;SDS011;69797;43.864;21.410;2023-07-16T14:03:04;10.57;;;6.80;;
80481;SDS011;69797;43.864;21.410;2023-07-16T14:05:31;8.52;;;6.72;;
80481;SDS011;69797;43.864;21.410;2023-07-16T14:08:05;9.25;;;6.88;;
80481;SDS011;69797;43.864;21.410;2023-07-16T14:10:32;8.75;;;6.13;;
80481;SDS011;69797;43.864;21.410;2023-07-16T14:12:59;12.27;;;6.93;;
80481;SDS011;69797;43.864;21.410;2023-07-16T14:15:25;10.07;;;6.50;;
80481;SDS011;69797;43.864;21.410;2023-07-16T14:17:52;8.15;;;6.43;;
80481;SDS011;69797;43.864;21.410;2023-07-16T14:20:22;8.38;;;6.70;;
80481;SDS011;69797;43.864;21.410;2023-07-16T14:22:49;12.43;;;6.32;;
80481;SDS011;69797;43.864;21.410;2023-07-16T14:25:16;8.50;;;6.60;;
80481;SDS011;69797;43.864;21.410;2023-07-16T14:27:42;10.18;;;6.57;;
80481;SDS011;69797;43.864;21.410;2023-07-16T14:30:09;9.15;;;6.53;;
80481;SDS011;69797;43.864;21.410;2023-07-16T14:32:37;11.48;;;6.93;;
80481;SDS011;69797;43.864;21.410;2023-07-16T14:35:04;9.57;;;6.35;;
80481;SDS011;69797;43.864;21.410;2023-07-16T14:37:36;8.37;;;5.40;;
80481;SDS011;69797;43.864;21.410;2023-07-16T14:40:03;9.75;;;6.55;;